Tina Pyne — WDI5698 — position and weather

sailwx.info

Track history (hours):
 
Tides and Currents Weather Stations Pressure Air Temp Water Temp Dewpoint Dewpoint Depression Visibility Wind Speed Wind Dir Waves Ship Positions

Tina Pyne

Owner: Kirby Offshore Marine, LLC, Seattle, WA. More information available from US FCC via Universal Licensing System and Coast Guard Vessel Documentation Center.

Last reported at 2017-Dec-15 19:30 UTC. Time now 2017-Dec-15 19:59 UTC.
Position N 26°07' W 080°05'.

Length 204 m; draft 8.3 m.

Type: . MMSI: 369020000.

Date/timePositionNaut miles runAvg speedWind from/ knotsBaromVisibWave heightAir tempDewpointWater temp
2017-Dec-15 19:30N 26°07' W 080°05'0 0.0
2017-Dec-15 19:00N 26°07' W 080°05'0 0.0
2017-Dec-15 18:30N 26°07' W 080°05'0 0.0
2017-Dec-15 18:00N 26°07' W 080°05'0 0.0
2017-Dec-15 17:30N 26°07' W 080°05'0 0.0
2017-Dec-15 17:00N 26°07' W 080°05'0 0.0
2017-Dec-15 16:30N 26°07' W 080°05'0 0.0
2017-Dec-15 16:00N 26°07' W 080°05'0 0.1
2017-Dec-15 15:30N 26°07' W 080°05'0 0.0
2017-Dec-15 15:00N 26°07' W 080°05'0 0.0
2017-Dec-15 14:30N 26°07' W 080°05'0 0.1
2017-Dec-15 14:00N 26°07' W 080°05'0 0.0
2017-Dec-15 13:30N 26°07' W 080°05'0 0.1
2017-Dec-15 13:00N 26°07' W 080°05'0 0.0
2017-Dec-15 12:30N 26°07' W 080°05'0 0.0
2017-Dec-15 12:00N 26°07' W 080°05'0 0.0
2017-Dec-15 11:30N 26°07' W 080°05'0 0.0
2017-Dec-15 11:00N 26°07' W 080°05'0 0.0
2017-Dec-15 10:30N 26°07' W 080°05'0 0.0
2017-Dec-15 10:00N 26°07' W 080°05'0 0.0
2017-Dec-15 09:30N 26°07' W 080°05'0 0.1
2017-Dec-15 09:00N 26°07' W 080°04'0 0.0
2017-Dec-15 08:30N 26°07' W 080°04'0 0.1
2017-Dec-15 08:00N 26°07' W 080°05'0 0.0
2017-Dec-15 07:30N 26°07' W 080°05'0 0.0
2017-Dec-15 06:57N 26°07' W 080°05'0 0.0
2017-Dec-15 06:30N 26°07' W 080°05'0 0.0
2017-Dec-15 06:00N 26°07' W 080°05'0 0.0
2017-Dec-15 05:30N 26°07' W 080°05'0 0.0
2017-Dec-15 04:57N 26°07' W 080°05'0 0.0
2017-Dec-15 04:30N 26°07' W 080°05'0 0.0
2017-Dec-15 04:00N 26°07' W 080°05'0 0.0
2017-Dec-15 02:27N 26°07' W 080°05'0 0.0
2017-Dec-15 01:01N 26°07' W 080°05'1 1.5
2017-Dec-15 00:30N 26°07' W 080°04'  
2017-Dec-07 08:29N 25°15' W 080°05'4 8.9
2017-Dec-07 08:00N 25°19' W 080°03'4 8.7
2017-Dec-07 07:30N 25°23' W 080°02'5 9.5
2017-Dec-07 07:01N 25°28' W 080°02'5 9.8
2017-Dec-07 06:30N 25°33' W 080°02'510.2
2017-Dec-07 06:00N 25°38' W 080°02'510.6
2017-Dec-07 05:30N 25°43' W 080°02'611.0
2017-Dec-07 05:00N 25°48' W 080°02'611.9
2017-Dec-07 04:30N 25°54' W 080°02'613.0
2017-Dec-07 04:01N 26°01' W 080°03'610.9
2017-Dec-07 03:30N 26°06' W 080°06'1 2.4
2017-Dec-07 03:00N 26°06' W 080°07'0 0.0
2017-Dec-07 02:26N 26°06' W 080°07'0 0.0
2017-Dec-07 01:59N 26°06' W 080°07'0 0.0
2017-Dec-07 01:29N 26°06' W 080°07'0 0.0
2017-Dec-07 00:59N 26°06' W 080°07'0 0.0
2017-Dec-07 00:29N 26°06' W 080°07'0 0.0
2017-Dec-06 23:59N 26°06' W 080°07'0 0.0
2017-Dec-06 23:29N 26°06' W 080°07'0 0.0
2017-Dec-06 22:59N 26°06' W 080°07'0 0.0
2017-Dec-06 22:29N 26°06' W 080°07'0 0.0
2017-Dec-06 21:59N 26°06' W 080°07'0 0.0
2017-Dec-06 21:29N 26°06' W 080°07'0 0.0
2017-Dec-06 20:59N 26°06' W 080°07'  
Track history (hours):
 
Tides and Currents Weather Stations Pressure Air Temp Water Temp Dewpoint Dewpoint Depression Visibility Wind Speed Wind Dir Waves Ship Positions

Tina Pyne

Owner: Kirby Offshore Marine, LLC, Seattle, WA. More information available from US FCC via Universal Licensing System and Coast Guard Vessel Documentation Center.

Last reported at 2017-Dec-15 19:30 UTC. Time now 2017-Dec-15 19:59 UTC.
Position N 26°07' W 080°05'.

Length 204 m; draft 8.3 m.

Type: . MMSI: 369020000.

Date/timePositionNaut miles runAvg speedWind from/ knotsBaromVisibWave heightAir tempDewpointWater temp
2017-Dec-15 19:30N 26°07' W 080°05'0 0.0
2017-Dec-15 19:00N 26°07' W 080°05'0 0.0
2017-Dec-15 18:30N 26°07' W 080°05'0 0.0
2017-Dec-15 18:00N 26°07' W 080°05'0 0.0
2017-Dec-15 17:30N 26°07' W 080°05'0 0.0
2017-Dec-15 17:00N 26°07' W 080°05'0 0.0
2017-Dec-15 16:30N 26°07' W 080°05'0 0.0
2017-Dec-15 16:00N 26°07' W 080°05'0 0.1
2017-Dec-15 15:30N 26°07' W 080°05'0 0.0
2017-Dec-15 15:00N 26°07' W 080°05'0 0.0
2017-Dec-15 14:30N 26°07' W 080°05'0 0.1
2017-Dec-15 14:00N 26°07' W 080°05'0 0.0
2017-Dec-15 13:30N 26°07' W 080°05'0 0.1
2017-Dec-15 13:00N 26°07' W 080°05'0 0.0
2017-Dec-15 12:30N 26°07' W 080°05'0 0.0
2017-Dec-15 12:00N 26°07' W 080°05'0 0.0
2017-Dec-15 11:30N 26°07' W 080°05'0 0.0
2017-Dec-15 11:00N 26°07' W 080°05'0 0.0
2017-Dec-15 10:30N 26°07' W 080°05'0 0.0
2017-Dec-15 10:00N 26°07' W 080°05'0 0.0
2017-Dec-15 09:30N 26°07' W 080°05'0 0.1
2017-Dec-15 09:00N 26°07' W 080°04'0 0.0
2017-Dec-15 08:30N 26°07' W 080°04'0 0.1
2017-Dec-15 08:00N 26°07' W 080°05'0 0.0
2017-Dec-15 07:30N 26°07' W 080°05'0 0.0
2017-Dec-15 06:57N 26°07' W 080°05'0 0.0
2017-Dec-15 06:30N 26°07' W 080°05'0 0.0
2017-Dec-15 06:00N 26°07' W 080°05'0 0.0
2017-Dec-15 05:30N 26°07' W 080°05'0 0.0
2017-Dec-15 04:57N 26°07' W 080°05'0 0.0
2017-Dec-15 04:30N 26°07' W 080°05'0 0.0
2017-Dec-15 04:00N 26°07' W 080°05'0 0.0
2017-Dec-15 02:27N 26°07' W 080°05'0 0.0
2017-Dec-15 01:01N 26°07' W 080°05'1 1.5
2017-Dec-15 00:30N 26°07' W 080°04'  
2017-Dec-07 08:29N 25°15' W 080°05'4 8.9
2017-Dec-07 08:00N 25°19' W 080°03'4 8.7
2017-Dec-07 07:30N 25°23' W 080°02'5 9.5
2017-Dec-07 07:01N 25°28' W 080°02'5 9.8
2017-Dec-07 06:30N 25°33' W 080°02'510.2
2017-Dec-07 06:00N 25°38' W 080°02'510.6
2017-Dec-07 05:30N 25°43' W 080°02'611.0
2017-Dec-07 05:00N 25°48' W 080°02'611.9
2017-Dec-07 04:30N 25°54' W 080°02'613.0
2017-Dec-07 04:01N 26°01' W 080°03'610.9
2017-Dec-07 03:30N 26°06' W 080°06'1 2.4
2017-Dec-07 03:00N 26°06' W 080°07'0 0.0
2017-Dec-07 02:26N 26°06' W 080°07'0 0.0
2017-Dec-07 01:59N 26°06' W 080°07'0 0.0
2017-Dec-07 01:29N 26°06' W 080°07'0 0.0
2017-Dec-07 00:59N 26°06' W 080°07'0 0.0
2017-Dec-07 00:29N 26°06' W 080°07'0 0.0
2017-Dec-06 23:59N 26°06' W 080°07'0 0.0
2017-Dec-06 23:29N 26°06' W 080°07'0 0.0
2017-Dec-06 22:59N 26°06' W 080°07'0 0.0
2017-Dec-06 22:29N 26°06' W 080°07'0 0.0
2017-Dec-06 21:59N 26°06' W 080°07'0 0.0
2017-Dec-06 21:29N 26°06' W 080°07'0 0.0
2017-Dec-06 20:59N 26°06' W 080°07'  

Dump ship's entire track history